createdAt,value
2022-11-30T00:01:30.990Z,16.47
2022-11-30T00:03:58.545Z,19.20
2022-11-30T00:06:26.147Z,20.27
2022-11-30T00:08:55.507Z,20.20
2022-11-30T00:11:25.566Z,17.77
2022-11-30T00:13:53.263Z,23.10
2022-11-30T00:16:21.196Z,21.77
2022-11-30T00:18:48.929Z,19.53
2022-11-30T00:21:16.479Z,19.20
2022-11-30T00:23:45.721Z,19.70
2022-11-30T00:26:16.715Z,17.97
2022-11-30T00:28:45.998Z,18.83
2022-11-30T00:31:16.557Z,24.83
2022-11-30T00:33:44.874Z,20.77
2022-11-30T00:36:15.934Z,18.80
2022-11-30T00:38:44.486Z,20.67
2022-11-30T00:41:14.780Z,16.23
2022-11-30T00:43:42.486Z,18.23
2022-11-30T00:46:10.751Z,23.20
2022-11-30T00:48:39.519Z,16.40
2022-11-30T00:51:08.358Z,19.10
2022-11-30T00:53:36.125Z,17.20
2022-11-30T00:56:04.264Z,20.90
2022-11-30T00:58:31.728Z,18.00
2022-11-30T01:01:01.530Z,18.57
2022-11-30T01:03:29.345Z,24.47
2022-11-30T01:06:02.832Z,20.00
2022-11-30T01:08:30.473Z,22.10
2022-11-30T01:11:05.976Z,21.73
2022-11-30T01:13:33.539Z,18.63
2022-11-30T01:16:01.228Z,23.70
2022-11-30T01:18:28.784Z,20.73
2022-11-30T01:20:56.329Z,19.30
2022-11-30T01:23:23.812Z,24.60
2022-11-30T01:25:55.651Z,22.10
2022-11-30T01:28:23.240Z,21.90
2022-11-30T01:31:08.249Z,20.77
2022-11-30T01:33:36.328Z,22.37
2022-11-30T01:36:12.302Z,26.30
2022-11-30T01:38:51.111Z,19.00
2022-11-30T01:41:31.678Z,25.23
2022-11-30T01:44:05.079Z,20.23
2022-11-30T01:47:10.256Z,21.37
2022-11-30T01:49:51.758Z,25.43
2022-11-30T01:52:19.260Z,20.00
2022-11-30T01:54:54.428Z,20.70
2022-11-30T01:57:24.928Z,27.67
2022-11-30T01:59:54.915Z,16.40
2022-11-30T02:02:32.183Z,20.80
2022-11-30T02:05:00.601Z,29.92
2022-11-30T02:07:28.384Z,19.50
2022-11-30T02:09:56.006Z,24.70
2022-11-30T02:13:01.706Z,23.87
2022-11-30T02:16:07.514Z,22.13
2022-11-30T02:18:41.130Z,21.87
2022-11-30T02:21:33.269Z,24.77
2022-11-30T02:24:23.310Z,23.27
2022-11-30T02:27:02.859Z,24.07
2022-11-30T02:29:35.120Z,22.67
2022-11-30T02:32:08.115Z,20.50
2022-11-30T02:34:38.234Z,23.23
2022-11-30T02:37:08.060Z,21.77
2022-11-30T02:39:35.729Z,22.37
2022-11-30T02:42:03.420Z,20.20
2022-11-30T02:44:31.495Z,24.57
2022-11-30T02:47:05.019Z,21.13
2022-11-30T02:49:38.475Z,21.43
2022-11-30T02:52:08.190Z,17.23
2022-11-30T02:54:35.827Z,25.07
2022-11-30T02:57:03.385Z,22.43
2022-11-30T02:59:31.020Z,25.90
2022-11-30T03:01:58.597Z,20.23
2022-11-30T03:04:26.205Z,20.37
2022-11-30T03:06:53.686Z,20.00
2022-11-30T03:09:21.247Z,23.10
2022-11-30T03:11:48.748Z,26.27
2022-11-30T03:14:16.203Z,24.30
2022-11-30T03:16:44.342Z,21.43
2022-11-30T03:19:12.692Z,21.00
2022-11-30T03:21:40.226Z,21.73
2022-11-30T03:24:08.106Z,26.90
2022-11-30T03:26:35.747Z,23.33
2022-11-30T03:29:03.506Z,27.03
2022-11-30T03:31:31.094Z,19.13
2022-11-30T03:33:58.700Z,26.63
2022-11-30T03:36:26.310Z,24.13
2022-11-30T03:38:53.739Z,22.93
2022-11-30T03:41:21.319Z,21.13
2022-11-30T03:43:49.891Z,21.97
2022-11-30T03:46:17.918Z,21.40
2022-11-30T03:48:45.618Z,24.23
2022-11-30T03:51:14.403Z,21.33
2022-11-30T03:53:42.395Z,21.77
2022-11-30T03:56:11.791Z,25.03
2022-11-30T03:58:39.344Z,18.37
2022-11-30T04:01:13.412Z,18.80
2022-11-30T04:03:41.695Z,22.70
2022-11-30T04:06:10.672Z,20.57
2022-11-30T04:08:39.052Z,20.77
2022-11-30T04:11:07.685Z,26.57
2022-11-30T04:13:37.271Z,19.87
2022-11-30T04:16:06.604Z,22.07
2022-11-30T04:18:36.574Z,21.57
2022-11-30T04:21:05.172Z,20.43
2022-11-30T04:23:35.550Z,20.83
2022-11-30T04:26:08.588Z,19.47
2022-11-30T04:28:36.440Z,18.77
2022-11-30T04:31:04.717Z,19.80
2022-11-30T04:33:32.439Z,23.73
2022-11-30T04:36:02.811Z,18.53
2022-11-30T04:38:31.374Z,18.23
2022-11-30T04:40:58.977Z,22.20
2022-11-30T04:43:27.635Z,22.70
2022-11-30T04:45:55.075Z,23.13
2022-11-30T04:48:22.586Z,22.50
2022-11-30T04:50:50.093Z,30.27
2022-11-30T04:53:17.616Z,21.07
2022-11-30T04:55:45.148Z,18.57
2022-11-30T04:58:12.624Z,18.03
2022-11-30T05:00:40.250Z,24.37
2022-11-30T05:03:08.067Z,19.27
2022-11-30T05:05:35.737Z,19.57
2022-11-30T05:08:03.318Z,24.97
2022-11-30T05:10:33.898Z,21.73
2022-11-30T05:13:01.725Z,23.23
2022-11-30T05:15:29.398Z,20.90
2022-11-30T05:18:01.337Z,16.80
2022-11-30T05:20:29.541Z,18.83
2022-11-30T05:22:57.899Z,19.70
2022-11-30T05:25:25.485Z,17.90
2022-11-30T05:27:53.096Z,20.97
2022-11-30T05:30:20.716Z,18.87
2022-11-30T05:32:48.334Z,23.83
2022-11-30T05:35:16.006Z,19.10
2022-11-30T05:37:43.475Z,19.70
2022-11-30T05:40:11.268Z,21.87
2022-11-30T05:42:41.314Z,23.77
2022-11-30T05:45:11.768Z,25.13
2022-11-30T05:47:39.323Z,18.77
2022-11-30T05:50:07.542Z,22.00
2022-11-30T05:52:35.157Z,27.83
2022-11-30T05:55:02.590Z,19.47
2022-11-30T05:57:30.763Z,24.90
2022-11-30T05:59:58.219Z,21.97
2022-11-30T06:02:28.340Z,20.60
2022-11-30T06:04:56.239Z,23.37
2022-11-30T06:07:23.785Z,24.90
2022-11-30T06:09:51.470Z,18.80
2022-11-30T06:12:18.941Z,21.63
2022-11-30T06:14:49.153Z,19.47
2022-11-30T06:17:17.374Z,20.37
2022-11-30T06:19:44.879Z,19.40
2022-11-30T06:22:12.422Z,21.70
2022-11-30T06:24:39.927Z,25.10
2022-11-30T06:27:07.364Z,18.17
2022-11-30T06:29:35.255Z,20.70
2022-11-30T06:32:02.896Z,21.47
2022-11-30T06:34:32.391Z,26.93
2022-11-30T06:36:59.900Z,18.27
2022-11-30T06:39:57.896Z,17.73
2022-11-30T06:42:15.001Z,19.25
2022-11-30T06:44:42.522Z,19.90
2022-11-30T06:47:10.053Z,20.77
2022-11-30T06:49:37.745Z,18.90
2022-11-30T06:52:05.391Z,17.10
2022-11-30T06:54:32.836Z,19.97
2022-11-30T06:57:01.407Z,19.83
2022-11-30T06:59:29.501Z,19.37
2022-11-30T07:01:57.133Z,23.20
2022-11-30T07:04:24.712Z,20.67
2022-11-30T07:06:52.279Z,16.93
2022-11-30T07:09:19.918Z,19.30
2022-11-30T07:11:47.391Z,23.07
2022-11-30T07:14:14.959Z,21.53
2022-11-30T07:16:42.435Z,17.83
2022-11-30T07:19:09.957Z,21.83
2022-11-30T07:21:37.407Z,19.50
2022-11-30T07:24:23.575Z,18.40
2022-11-30T07:26:51.163Z,25.73
2022-11-30T07:29:26.090Z,20.90
2022-11-30T07:31:54.725Z,20.57
2022-11-30T07:34:22.928Z,19.63
2022-11-30T07:36:50.335Z,20.20
2022-11-30T07:39:17.790Z,21.67
2022-11-30T07:41:45.263Z,21.13
2022-11-30T07:44:12.706Z,21.87
2022-11-30T07:46:40.175Z,20.80
2022-11-30T07:49:09.669Z,18.60
2022-11-30T07:51:37.782Z,21.07
2022-11-30T07:54:05.504Z,22.57
2022-11-30T07:56:33.220Z,24.53
2022-11-30T07:59:02.000Z,20.40
2022-11-30T08:01:32.460Z,25.23
2022-11-30T08:04:00.478Z,22.50
2022-11-30T08:06:30.657Z,23.50
2022-11-30T08:09:01.313Z,25.40
2022-11-30T08:11:31.193Z,20.57
2022-11-30T08:13:58.985Z,29.23
2022-11-30T08:16:28.694Z,25.73
2022-11-30T08:18:57.049Z,27.07
2022-11-30T08:21:25.096Z,22.50
2022-11-30T08:23:56.533Z,23.70
2022-11-30T08:26:27.695Z,24.80
2022-11-30T08:28:55.678Z,25.93
2022-11-30T08:31:31.675Z,30.73
2022-11-30T08:34:07.603Z,25.63
2022-11-30T08:36:35.264Z,28.63
2022-11-30T08:39:05.233Z,27.90
2022-11-30T08:41:34.950Z,30.87
2022-11-30T08:44:02.455Z,31.37
2022-11-30T08:49:22.536Z,29.20
2022-11-30T08:52:17.022Z,28.87
2022-11-30T08:54:46.405Z,32.13
2022-11-30T08:57:19.705Z,30.00
2022-11-30T08:59:47.829Z,26.73
2022-11-30T09:02:18.231Z,25.53
2022-11-30T09:04:49.294Z,20.63
2022-11-30T09:07:17.883Z,20.50
2022-11-30T09:09:45.819Z,23.30
2022-11-30T09:12:15.840Z,23.53
2022-11-30T09:14:45.193Z,21.93
2022-11-30T09:17:12.925Z,24.43
2022-11-30T09:19:40.446Z,26.87
2022-11-30T09:22:08.009Z,29.60
2022-11-30T09:24:35.604Z,28.67
2022-11-30T09:27:03.065Z,27.23
2022-11-30T09:29:30.606Z,23.80
2022-11-30T09:31:58.336Z,25.90
2022-11-30T09:34:26.103Z,26.57
2022-11-30T09:36:53.618Z,32.47
2022-11-30T09:39:21.184Z,30.10
2022-11-30T09:42:07.079Z,33.70
2022-11-30T09:44:43.577Z,31.87
2022-11-30T09:47:45.271Z,31.67
2022-11-30T09:50:20.655Z,32.90
2022-11-30T09:53:01.409Z,30.33
2022-11-30T09:55:34.013Z,33.23
2022-11-30T09:58:05.687Z,26.80
2022-11-30T10:00:34.984Z,28.77
2022-11-30T10:03:06.161Z,31.47
2022-11-30T10:05:51.464Z,30.67
2022-11-30T10:08:33.573Z,34.77
2022-11-30T10:11:25.628Z,38.87
2022-11-30T10:14:00.863Z,29.33
2022-11-30T10:16:47.205Z,37.80
2022-11-30T10:19:33.463Z,32.97
2022-11-30T10:22:13.216Z,30.13
2022-11-30T10:25:18.241Z,27.70
2022-11-30T10:28:38.589Z,32.57
2022-11-30T10:31:01.604Z,32.90
2022-11-30T10:33:38.785Z,35.53
2022-11-30T10:36:30.301Z,29.63
2022-11-30T10:39:02.296Z,32.00
2022-11-30T10:41:48.520Z,28.80
2022-11-30T10:44:27.124Z,28.17
2022-11-30T10:47:15.673Z,30.00
2022-11-30T10:49:48.830Z,37.50
2022-11-30T10:52:27.275Z,35.93
2022-11-30T10:55:02.205Z,31.50
2022-11-30T10:57:33.249Z,29.30
2022-11-30T11:00:05.801Z,35.83
2022-11-30T11:02:50.417Z,34.20
2022-11-30T11:05:18.217Z,27.03
2022-11-30T11:08:19.656Z,38.33
2022-11-30T11:10:52.215Z,32.77
2022-11-30T11:13:41.477Z,37.53
2022-11-30T11:16:11.693Z,37.17
2022-11-30T11:18:57.928Z,37.37
2022-11-30T11:21:25.482Z,31.40
2022-11-30T11:23:55.976Z,34.60
2022-11-30T11:26:28.641Z,34.70
2022-11-30T11:28:59.680Z,30.17
2022-11-30T11:31:42.353Z,33.03
2022-11-30T11:34:31.823Z,35.13
2022-11-30T11:37:20.384Z,29.97
2022-11-30T11:40:09.567Z,32.77
2022-11-30T11:42:45.523Z,36.87
2022-11-30T11:45:20.158Z,36.17
2022-11-30T11:48:11.772Z,32.87
2022-11-30T11:53:46.073Z,29.65
2022-11-30T11:56:29.407Z,36.60
2022-11-30T11:59:01.814Z,29.37
2022-11-30T12:01:50.951Z,36.20
2022-11-30T12:04:31.958Z,30.10
2022-11-30T12:07:04.897Z,28.13
2022-11-30T12:09:39.713Z,30.93
2022-11-30T12:12:13.310Z,31.10
2022-11-30T12:14:40.852Z,25.10
2022-11-30T12:17:35.524Z,27.77
2022-11-30T12:20:18.378Z,25.53
2022-11-30T12:22:54.816Z,30.17
2022-11-30T12:25:50.150Z,34.13
2022-11-30T12:28:28.114Z,28.80
2022-11-30T12:31:15.682Z,29.37
2022-11-30T12:33:57.298Z,28.45
2022-11-30T12:36:39.646Z,25.83
2022-11-30T12:39:16.270Z,27.83
2022-11-30T12:42:03.243Z,32.63
2022-11-30T12:44:45.527Z,26.43
2022-11-30T12:47:39.930Z,22.43
2022-11-30T12:50:40.648Z,31.13
2022-11-30T12:53:37.700Z,27.37
2022-11-30T12:56:28.308Z,23.57
2022-11-30T12:59:28.076Z,26.67
2022-11-30T13:02:17.316Z,27.70
2022-11-30T13:04:58.791Z,27.07
2022-11-30T13:07:34.816Z,23.60
2022-11-30T13:10:27.858Z,33.00
2022-11-30T13:13:02.456Z,31.73
2022-11-30T13:15:34.331Z,29.13
2022-11-30T13:18:03.501Z,28.87
2022-11-30T13:20:46.821Z,25.27
2022-11-30T13:23:21.310Z,29.63
2022-11-30T13:26:11.743Z,41.70
2022-11-30T13:28:42.282Z,32.67
2022-11-30T13:31:21.950Z,33.17
2022-11-30T13:33:58.375Z,33.40
2022-11-30T13:36:48.256Z,35.33
2022-11-30T13:39:16.517Z,28.37
2022-11-30T13:41:50.708Z,40.73
2022-11-30T13:44:34.268Z,36.30
2022-11-30T13:47:04.642Z,34.07
2022-11-30T13:49:36.877Z,38.70
2022-11-30T13:52:23.174Z,32.97
2022-11-30T13:54:57.378Z,45.90
2022-11-30T13:57:24.871Z,37.40
2022-11-30T14:00:03.997Z,45.27
2022-11-30T14:02:32.603Z,41.40
2022-11-30T14:05:18.330Z,30.50
2022-11-30T14:08:07.090Z,40.17
2022-11-30T14:10:38.198Z,39.30
2022-11-30T14:13:29.684Z,42.63
2022-11-30T14:16:00.831Z,32.83
2022-11-30T14:18:39.933Z,38.70
2022-11-30T14:21:26.584Z,34.00
2022-11-30T14:23:59.731Z,34.97
2022-11-30T14:26:44.062Z,40.67
2022-11-30T14:29:27.670Z,36.20
2022-11-30T14:32:28.540Z,33.63
2022-11-30T14:35:05.902Z,33.13
2022-11-30T14:37:40.919Z,33.25
2022-11-30T14:40:18.460Z,33.90
2022-11-30T14:42:51.699Z,26.47
2022-11-30T14:45:21.794Z,34.47
2022-11-30T14:47:55.818Z,32.27
2022-11-30T14:50:26.109Z,29.40
2022-11-30T14:53:13.360Z,28.73
2022-11-30T14:55:46.551Z,35.25
2022-11-30T14:58:45.568Z,27.77
2022-11-30T15:01:43.125Z,31.40
2022-11-30T15:04:20.723Z,30.48
2022-11-30T15:06:53.001Z,26.02
2022-11-30T15:09:30.935Z,27.77
2022-11-30T15:12:00.337Z,34.95
2022-11-30T15:14:31.406Z,34.37
2022-11-30T15:17:00.460Z,28.10
2022-11-30T15:19:35.386Z,31.33
2022-11-30T15:22:03.238Z,29.70
2022-11-30T15:24:30.781Z,30.40
2022-11-30T15:27:10.975Z,31.83
2022-11-30T15:29:57.715Z,37.67
2022-11-30T15:32:26.273Z,31.90
2022-11-30T15:35:00.943Z,32.50
2022-11-30T15:37:33.826Z,34.47
2022-11-30T15:40:03.457Z,30.20
2022-11-30T15:42:44.098Z,29.17
2022-11-30T15:45:30.473Z,30.13
2022-11-30T15:48:00.315Z,39.00
2022-11-30T15:50:31.174Z,32.00
2022-11-30T15:53:01.172Z,36.57
2022-11-30T15:55:48.720Z,29.60
2022-11-30T15:58:46.101Z,30.02
2022-11-30T16:01:20.801Z,30.47
2022-11-30T16:04:02.368Z,32.77
2022-11-30T16:06:32.713Z,34.40
2022-11-30T16:09:19.301Z,27.97
2022-11-30T16:11:50.379Z,29.93
2022-11-30T16:14:18.179Z,24.73
2022-11-30T16:16:46.340Z,25.33
2022-11-30T16:19:14.031Z,27.67
2022-11-30T16:21:41.872Z,39.70
2022-11-30T16:24:16.084Z,28.93
2022-11-30T16:26:50.910Z,30.53
2022-11-30T16:29:18.969Z,27.67
2022-11-30T16:31:46.586Z,28.63
2022-11-30T16:34:14.293Z,32.23
2022-11-30T16:36:41.782Z,29.47
2022-11-30T16:39:12.375Z,32.53
2022-11-30T16:41:43.395Z,24.90
2022-11-30T16:44:14.677Z,27.63
2022-11-30T16:46:42.323Z,27.80
2022-11-30T16:49:09.964Z,29.40
2022-11-30T16:51:37.630Z,32.43
2022-11-30T16:54:05.402Z,26.43
2022-11-30T16:56:33.406Z,28.87
2022-11-30T16:59:01.064Z,33.27
2022-11-30T17:01:35.538Z,31.03
2022-11-30T17:04:21.514Z,26.67
2022-11-30T17:06:51.304Z,26.97
2022-11-30T17:09:21.479Z,29.50
2022-11-30T17:11:50.922Z,29.33
2022-11-30T17:14:19.858Z,40.50
2022-11-30T17:16:47.672Z,33.27
2022-11-30T17:19:15.348Z,30.70
2022-11-30T17:21:44.801Z,28.30
2022-11-30T17:24:13.294Z,29.53
2022-11-30T17:26:40.893Z,27.47
2022-11-30T17:29:08.485Z,28.23
2022-11-30T17:31:36.987Z,31.07
2022-11-30T17:34:04.478Z,33.90
2022-11-30T17:36:32.097Z,33.77
2022-11-30T17:38:59.692Z,36.93
2022-11-30T17:41:27.173Z,39.10
2022-11-30T17:43:54.867Z,35.33
2022-11-30T17:46:22.676Z,34.00
2022-11-30T17:48:50.573Z,39.57
2022-11-30T17:51:18.098Z,35.87
2022-11-30T17:53:48.074Z,34.63
2022-11-30T17:56:17.508Z,34.60
2022-11-30T17:58:46.298Z,34.47
2022-11-30T18:01:30.135Z,27.67
2022-11-30T18:03:59.116Z,35.13
2022-11-30T18:06:26.902Z,35.80
2022-11-30T18:08:54.471Z,33.00
2022-11-30T18:11:24.012Z,36.03
2022-11-30T18:13:54.446Z,35.87
2022-11-30T18:16:27.730Z,34.80
2022-11-30T18:18:57.480Z,34.70
2022-11-30T18:21:28.383Z,36.67
2022-11-30T18:23:57.838Z,37.17
2022-11-30T18:26:26.833Z,28.70
2022-11-30T18:28:56.768Z,27.20
2022-11-30T18:31:24.975Z,34.07
2022-11-30T18:33:56.606Z,35.83
2022-11-30T18:36:24.580Z,32.80
2022-11-30T18:38:52.156Z,33.83
2022-11-30T18:41:20.120Z,33.10
2022-11-30T18:43:47.743Z,35.10
2022-11-30T18:46:15.362Z,31.10
2022-11-30T18:48:43.110Z,37.77
2022-11-30T18:51:22.976Z,32.93
2022-11-30T18:53:57.717Z,32.83
2022-11-30T18:56:27.103Z,30.90
2022-11-30T18:59:06.662Z,35.60
2022-11-30T19:01:35.712Z,34.53
2022-11-30T19:04:06.003Z,34.33
2022-11-30T19:06:34.658Z,31.87
2022-11-30T19:09:05.839Z,34.27
2022-11-30T19:11:33.884Z,35.87
2022-11-30T19:14:02.089Z,32.73
2022-11-30T19:16:31.378Z,39.33
2022-11-30T19:19:02.164Z,35.43
2022-11-30T19:21:29.733Z,38.43
2022-11-30T19:23:57.588Z,36.40
2022-11-30T19:26:28.006Z,32.97
2022-11-30T19:28:57.152Z,40.33
2022-11-30T19:31:25.504Z,38.50
2022-11-30T19:33:55.850Z,39.40
2022-11-30T19:36:26.183Z,34.67
2022-11-30T19:38:54.818Z,31.83
2022-11-30T19:41:22.607Z,34.27
2022-11-30T19:44:04.110Z,32.47
2022-11-30T19:46:34.726Z,34.77
2022-11-30T19:49:02.566Z,29.23
2022-11-30T19:51:31.294Z,32.83
2022-11-30T19:54:01.924Z,33.50
2022-11-30T19:56:32.346Z,32.87
2022-11-30T19:59:05.059Z,39.00
2022-11-30T20:01:34.509Z,27.10
2022-11-30T20:04:03.230Z,32.50
2022-11-30T20:06:34.352Z,30.47
2022-11-30T20:09:03.823Z,28.57
2022-11-30T20:11:31.702Z,36.30
2022-11-30T20:14:00.432Z,34.80
2022-11-30T20:16:28.333Z,35.90
2022-11-30T20:19:00.897Z,36.70
2022-11-30T20:21:34.382Z,30.77
2022-11-30T20:24:06.234Z,35.40
2022-11-30T20:26:39.869Z,31.97
2022-11-30T20:29:11.960Z,30.07
2022-11-30T20:31:39.741Z,31.27
2022-11-30T20:34:08.285Z,31.87
2022-11-30T20:36:36.232Z,33.80
2022-11-30T20:39:04.792Z,40.83
2022-11-30T20:41:34.051Z,30.57
2022-11-30T20:44:01.795Z,34.07
2022-11-30T20:46:32.149Z,31.37
2022-11-30T20:49:00.752Z,31.03
2022-11-30T20:51:32.436Z,39.93
2022-11-30T20:54:02.724Z,38.27
2022-11-30T20:56:30.353Z,29.83
2022-11-30T20:59:01.646Z,40.20
2022-11-30T21:01:29.477Z,33.90
2022-11-30T21:04:01.011Z,34.87
2022-11-30T21:06:30.199Z,32.83
2022-11-30T21:08:58.842Z,38.53
2022-11-30T21:11:27.803Z,36.23
2022-11-30T21:13:56.526Z,33.07
2022-11-30T21:16:28.564Z,33.03
2022-11-30T21:18:59.090Z,31.53
2022-11-30T21:21:30.923Z,31.93
2022-11-30T21:24:00.938Z,33.13
2022-11-30T21:26:34.001Z,35.50
2022-11-30T21:29:04.853Z,31.67
2022-11-30T21:31:32.531Z,38.13
2022-11-30T21:34:00.477Z,41.90
2022-11-30T21:36:28.630Z,35.33
2022-11-30T21:39:06.356Z,35.93
2022-11-30T21:41:38.800Z,37.77
2022-11-30T21:44:10.543Z,33.20
2022-11-30T21:46:38.621Z,33.00
2022-11-30T21:49:06.959Z,41.67
2022-11-30T21:51:34.613Z,33.77
2022-11-30T21:54:07.591Z,38.13
2022-11-30T21:56:37.174Z,38.60
2022-11-30T21:59:06.760Z,39.53
2022-11-30T22:01:39.343Z,40.43
2022-11-30T22:04:08.591Z,39.80
2022-11-30T22:06:37.763Z,37.70
2022-11-30T22:09:16.690Z,43.53
2022-11-30T22:11:45.425Z,34.23
2022-11-30T22:14:16.071Z,40.97
2022-11-30T22:16:44.532Z,38.63
2022-11-30T22:19:12.051Z,40.87
2022-11-30T22:21:39.882Z,42.67
2022-11-30T22:24:11.239Z,39.13
2022-11-30T22:26:39.873Z,38.67
2022-11-30T22:29:16.573Z,38.67
2022-11-30T22:31:46.233Z,39.95
2022-11-30T22:34:14.241Z,37.77
2022-11-30T22:36:43.233Z,40.23
2022-11-30T22:39:19.730Z,35.00
2022-11-30T22:41:54.668Z,42.03
2022-11-30T22:44:24.310Z,39.67
2022-11-30T22:46:51.974Z,33.70
2022-11-30T22:49:21.544Z,38.77
2022-11-30T22:51:50.643Z,35.37
2022-11-30T22:54:18.948Z,37.87
2022-11-30T22:56:46.897Z,46.43
2022-11-30T22:59:15.357Z,45.00
2022-11-30T23:01:45.721Z,39.97
2022-11-30T23:04:16.216Z,37.03
2022-11-30T23:06:44.723Z,43.80
2022-11-30T23:09:15.276Z,45.60
2022-11-30T23:11:43.395Z,39.87
2022-11-30T23:14:12.268Z,36.73
2022-11-30T23:16:40.444Z,51.83
2022-11-30T23:19:10.607Z,40.43
2022-11-30T23:21:41.993Z,32.20
2022-11-30T23:24:14.266Z,38.63
2022-11-30T23:26:43.098Z,40.87
2022-11-30T23:29:13.773Z,36.57
2022-11-30T23:31:43.153Z,38.67
2022-11-30T23:34:16.716Z,37.93
2022-11-30T23:36:44.218Z,43.93
2022-11-30T23:39:14.781Z,34.57
2022-11-30T23:41:42.944Z,34.07
2022-11-30T23:44:11.489Z,37.57
2022-11-30T23:46:39.239Z,35.80
2022-11-30T23:49:07.142Z,36.97
2022-11-30T23:51:34.673Z,41.50
2022-11-30T23:54:02.145Z,36.90
2022-11-30T23:56:29.658Z,43.10
2022-11-30T23:58:57.096Z,39.30
